Time,TemperatureF,DewpointF,PressureIn,WindDirection,WindDirectionDegrees,WindSpeedMPH,WindSpeedGustMPH,Humidity,HourlyPrecipIn,Conditions,Clouds,dailyrainin,SoftwareType,DateUTC
2013-05-04 00:07:00,65.0,38.7,29.80,North,0,0.0,0.0,38,0.00,,,-99.99,Weather View 32 v70,2013-05-04 07:07:00,
2013-05-04 00:22:00,64.0,39.1,29.80,North,0,0.0,0.0,40,0.00,,,-99.99,Weather View 32 v70,2013-05-04 07:22:00,
2013-05-04 00:37:00,64.0,39.1,29.80,North,0,0.0,0.0,40,0.00,,,-99.99,Weather View 32 v70,2013-05-04 07:37:00,
2013-05-04 00:39:00,64.0,39.1,29.80,North,0,0.0,0.0,40,0.00,,,-99.99,Weather View 32 v70,2013-05-04 07:39:00,
2013-05-04 00:52:00,62.0,41.5,29.79,North,0,0.0,0.0,47,0.00,,,-99.99,Weather View 32 v70,2013-05-04 07:52:00,
2013-05-04 01:07:00,62.0,42.0,29.79,North,0,0.0,0.0,48,0.00,,,-99.99,Weather View 32 v70,2013-05-04 08:07:00,
2013-05-04 01:22:00,63.0,41.8,29.79,North,0,0.0,0.0,46,0.00,,,-99.99,Weather View 32 v70,2013-05-04 08:22:00,
2013-05-04 01:30:00,63.0,41.8,29.79,North,0,0.0,0.0,46,0.00,,,-99.99,Weather View 32 v70,2013-05-04 08:30:00,
2013-05-04 01:37:00,63.0,41.8,29.79,North,0,0.0,0.0,46,0.00,,,-99.99,Weather View 32 v70,2013-05-04 08:37:00,
2013-05-04 01:52:00,63.0,41.3,29.78,North,0,0.0,0.0,45,0.00,,,-99.99,Weather View 32 v70,2013-05-04 08:52:00,
2013-05-04 02:07:00,63.0,41.3,29.78,North,0,0.0,0.0,45,0.00,,,-99.99,Weather View 32 v70,2013-05-04 09:07:00,
2013-05-04 02:22:00,63.0,38.9,29.78,North,0,0.0,0.0,41,0.00,,,-99.99,Weather View 32 v70,2013-05-04 09:22:00,
2013-05-04 02:30:00,60.0,40.2,29.78,NNW,338,0.0,0.0,48,0.00,,,-99.99,Weather View 32 v70,2013-05-04 09:30:00,
2013-05-04 02:37:00,60.0,40.2,29.78,NNW,338,0.0,0.0,48,0.00,,,-99.99,Weather View 32 v70,2013-05-04 09:37:00,
2013-05-04 02:52:00,59.0,42.8,29.77,North,0,0.0,0.0,55,0.00,,,-99.99,Weather View 32 v70,2013-05-04 09:52:00,
2013-05-04 03:07:00,58.0,43.3,29.77,North,0,0.0,0.0,58,0.00,,,-99.99,Weather View 32 v70,2013-05-04 10:07:00,
2013-05-04 03:22:00,58.0,42.8,29.77,North,0,0.0,0.0,57,0.00,,,-99.99,Weather View 32 v70,2013-05-04 10:22:00,
2013-05-04 03:30:00,56.0,41.8,29.76,NNW,338,0.0,0.0,59,0.00,,,-99.99,Weather View 32 v70,2013-05-04 10:30:00,
2013-05-04 03:37:00,56.0,41.8,29.76,NNW,338,0.0,0.0,59,0.00,,,-99.99,Weather View 32 v70,2013-05-04 10:37:00,
2013-05-04 03:52:00,56.0,43.1,29.76,NNW,338,0.0,0.0,62,0.00,,,-99.99,Weather View 32 v70,2013-05-04 10:52:00,
2013-05-04 04:07:00,56.0,42.3,29.76,North,0,0.0,0.0,60,0.00,,,-99.99,Weather View 32 v70,2013-05-04 11:07:00,
2013-05-04 04:22:00,57.0,41.9,29.75,North,0,0.0,0.0,57,0.00,,,-99.99,Weather View 32 v70,2013-05-04 11:22:00,
2013-05-04 04:30:00,57.0,41.9,29.75,NNW,338,0.0,0.0,57,0.00,,,-99.99,Weather View 32 v70,2013-05-04 11:30:00,
2013-05-04 04:37:00,57.0,41.9,29.75,NNW,338,0.0,0.0,57,0.00,,,-99.99,Weather View 32 v70,2013-05-04 11:37:00,
2013-05-04 04:52:00,57.0,43.2,29.75,North,0,0.0,0.0,60,0.00,,,-99.99,Weather View 32 v70,2013-05-04 11:52:00,
2013-05-04 05:22:00,57.0,43.2,29.74,North,0,0.0,0.0,60,0.00,,,-99.99,Weather View 32 v70,2013-05-04 12:22:00,
2013-05-04 05:30:00,54.0,42.5,29.74,North,0,0.0,0.0,65,0.00,,,-99.99,Weather View 32 v70,2013-05-04 12:30:00,
2013-05-04 05:52:00,54.0,43.3,29.74,NNW,338,0.0,0.0,67,0.00,,,-99.99,Weather View 32 v70,2013-05-04 12:52:00,
2013-05-04 06:07:00,54.0,44.4,29.73,North,0,0.0,0.0,70,0.00,,,-99.99,Weather View 32 v70,2013-05-04 13:07:00,
2013-05-04 06:22:00,52.0,42.9,29.73,NNW,338,0.0,0.0,71,0.00,,,-99.99,Weather View 32 v70,2013-05-04 13:22:00,
2013-05-04 06:30:00,51.0,43.7,29.73,North,0,0.0,0.0,76,0.00,,,-99.99,Weather View 32 v70,2013-05-04 13:30:00,
2013-05-04 06:37:00,51.0,43.7,29.73,North,0,0.0,0.0,76,0.00,,,-99.99,Weather View 32 v70,2013-05-04 13:37:00,
2013-05-04 06:52:00,54.0,46.6,29.73,NNW,338,0.0,0.0,76,0.00,,,-99.99,Weather View 32 v70,2013-05-04 13:52:00,
2013-05-04 07:07:00,55.0,46.1,29.73,North,0,0.0,0.0,72,0.00,,,-99.99,Weather View 32 v70,2013-05-04 14:07:00,
2013-05-04 07:22:00,56.0,47.1,29.73,North,0,0.0,0.0,72,0.00,,,-99.99,Weather View 32 v70,2013-05-04 14:22:00,
2013-05-04 07:30:00,57.0,46.9,29.73,North,0,0.0,0.0,69,0.00,,,-99.99,Weather View 32 v70,2013-05-04 14:30:00,
2013-05-04 07:37:00,57.0,46.9,29.73,North,0,0.0,0.0,69,0.00,,,-99.99,Weather View 32 v70,2013-05-04 14:37:00,
2013-05-04 07:52:00,59.0,48.0,29.73,NNW,338,0.0,0.0,67,0.00,,,-99.99,Weather View 32 v70,2013-05-04 14:52:00,
2013-05-04 08:15:00,63.0,51.8,29.72,NNW,338,0.0,0.0,67,0.00,,,-99.99,Weather View 32 v70,2013-05-04 15:15:00,
2013-05-04 08:22:00,65.0,52.5,29.72,North,0,0.0,0.0,64,0.00,,,-99.99,Weather View 32 v70,2013-05-04 15:22:00,
2013-05-04 08:30:00,67.0,52.2,29.70,North,0,0.0,0.0,59,0.00,,,-99.99,Weather View 32 v70,2013-05-04 15:30:00,
2013-05-04 08:37:00,67.0,52.2,29.70,North,0,0.0,0.0,59,0.00,,,-99.99,Weather View 32 v70,2013-05-04 15:37:00,
2013-05-04 08:52:00,70.0,49.4,29.70,NNW,338,0.0,0.0,48,0.00,,,-99.99,Weather View 32 v70,2013-05-04 15:52:00,
2013-05-04 09:07:00,71.0,45.4,29.70,NNW,338,0.0,0.0,40,0.00,,,-99.99,Weather View 32 v70,2013-05-04 16:07:00,
2013-05-04 09:22:00,74.0,42.2,29.69,North,0,0.0,0.0,32,0.00,,,-99.99,Weather View 32 v70,2013-05-04 16:22:00,
2013-05-04 09:30:00,74.0,41.4,29.68,North,0,0.0,0.0,31,0.00,,,-99.99,Weather View 32 v70,2013-05-04 16:30:00,
2013-05-04 09:37:00,74.0,41.4,29.68,North,0,0.0,0.0,31,0.00,,,-99.99,Weather View 32 v70,2013-05-04 16:37:00,
2013-05-04 09:52:00,74.0,44.5,29.69,North,0,0.0,0.0,35,0.00,,,-99.99,Weather View 32 v70,2013-05-04 16:52:00,
2013-05-04 10:07:00,75.0,47.6,29.69,North,0,0.0,0.0,38,0.00,,,-99.99,Weather View 32 v70,2013-05-04 17:07:00,
2013-05-04 10:22:00,75.0,47.6,29.68,North,0,0.0,0.0,38,0.00,,,-99.99,Weather View 32 v70,2013-05-04 17:22:00,
2013-05-04 10:30:00,76.0,44.7,29.68,North,0,0.0,0.0,33,0.00,,,-99.99,Weather View 32 v70,2013-05-04 17:30:00,
2013-05-04 10:37:00,76.0,44.7,29.68,North,0,0.0,0.0,33,0.00,,,-99.99,Weather View 32 v70,2013-05-04 17:37:00,
2013-05-04 10:52:00,77.0,46.4,29.68,North,0,0.0,0.0,34,0.00,,,-99.99,Weather View 32 v70,2013-05-04 17:52:00,
2013-05-04 11:07:00,77.0,47.2,29.69,North,0,0.0,0.0,35,0.00,,,-99.99,Weather View 32 v70,2013-05-04 18:07:00,
2013-05-04 11:22:00,77.0,44.8,29.69,North,0,0.0,0.0,32,0.00,,,-99.99,Weather View 32 v70,2013-05-04 18:22:00,
2013-05-04 11:30:00,80.0,46.6,29.68,North,0,0.0,0.0,31,0.00,,,-99.99,Weather View 32 v70,2013-05-04 18:30:00,
2013-05-04 11:37:00,80.0,46.6,29.68,North,0,0.0,0.0,31,0.00,,,-99.99,Weather View 32 v70,2013-05-04 18:37:00,
2013-05-04 11:52:00,79.0,44.8,29.68,North,0,0.0,0.0,30,0.00,,,-99.99,Weather View 32 v70,2013-05-04 18:52:00,
2013-05-04 12:07:00,80.0,44.8,29.67,North,0,0.0,0.0,29,0.00,,,-99.99,Weather View 32 v70,2013-05-04 19:07:00,
2013-05-04 12:22:00,81.0,45.7,29.66,North,0,0.0,0.0,29,0.00,,,-99.99,Weather View 32 v70,2013-05-04 19:22:00,
2013-05-04 12:30:00,82.0,44.6,29.65,North,0,0.0,0.0,27,0.00,,,-99.99,Weather View 32 v70,2013-05-04 19:30:00,
2013-05-04 12:37:00,82.0,44.6,29.65,North,0,0.0,0.0,27,0.00,,,-99.99,Weather View 32 v70,2013-05-04 19:37:00,
2013-05-04 12:52:00,82.0,45.6,29.65,North,0,0.0,0.0,28,0.00,,,-99.99,Weather View 32 v70,2013-05-04 19:52:00,
2013-05-04 13:07:00,82.0,43.6,29.64,North,0,0.0,0.0,26,0.00,,,-99.99,Weather View 32 v70,2013-05-04 20:07:00,
2013-05-04 13:22:00,84.0,46.3,29.65,North,0,0.0,0.0,27,0.00,,,-99.99,Weather View 32 v70,2013-05-04 20:22:00,
2013-05-04 13:30:00,84.0,46.3,29.64,North,0,0.0,0.0,27,0.00,,,-99.99,Weather View 32 v70,2013-05-04 20:30:00,
2013-05-04 13:37:00,84.0,46.3,29.64,North,0,0.0,0.0,27,0.00,,,-99.99,Weather View 32 v70,2013-05-04 20:37:00,
2013-05-04 13:52:00,82.0,47.4,29.64,North,0,0.0,0.0,30,0.00,,,-99.99,Weather View 32 v70,2013-05-04 20:52:00,
2013-05-04 14:07:00,83.0,49.2,29.64,North,0,0.0,0.0,31,0.00,,,-99.99,Weather View 32 v70,2013-05-04 21:07:00,
2013-05-04 14:22:00,81.0,50.7,29.63,North,0,0.0,0.0,35,0.00,,,-99.99,Weather View 32 v70,2013-05-04 21:22:00,
2013-05-04 14:30:00,82.0,51.6,29.63,North,0,0.0,0.0,35,0.00,,,-99.99,Weather View 32 v70,2013-05-04 21:30:00,
2013-05-04 14:37:00,82.0,51.6,29.63,North,0,0.0,0.0,35,0.00,,,-99.99,Weather View 32 v70,2013-05-04 21:37:00,
2013-05-04 14:52:00,83.0,49.2,29.64,North,0,0.0,0.0,31,0.00,,,-99.99,Weather View 32 v70,2013-05-04 21:52:00,
2013-05-04 15:07:00,81.0,52.9,29.63,North,0,0.0,0.0,38,0.00,,,-99.99,Weather View 32 v70,2013-05-04 22:07:00,
2013-05-04 15:22:00,81.0,54.3,29.63,North,0,0.0,0.0,40,0.00,,,-99.99,Weather View 32 v70,2013-05-04 22:22:00,
2013-05-04 15:30:00,80.0,55.4,29.63,NNW,338,0.0,0.0,43,0.00,,,-99.99,Weather View 32 v70,2013-05-04 22:30:00,
2013-05-04 15:37:00,80.0,55.4,29.63,NNW,338,0.0,0.0,43,0.00,,,-99.99,Weather View 32 v70,2013-05-04 22:37:00,
2013-05-04 15:52:00,78.0,55.5,29.63,North,0,0.0,0.0,46,0.00,,,-99.99,Weather View 32 v70,2013-05-04 22:52:00,
2013-05-04 16:07:00,76.0,56.5,29.63,North,0,0.0,0.0,51,0.00,,,-99.99,Weather View 32 v70,2013-05-04 23:07:00,
2013-05-04 16:22:00,76.0,56.0,29.63,North,0,0.0,0.0,50,0.00,,,-99.99,Weather View 32 v70,2013-05-04 23:22:00,
2013-05-04 16:30:00,72.0,54.9,29.63,North,0,0.0,0.0,55,0.00,,,-99.99,Weather View 32 v70,2013-05-04 23:30:00,
2013-05-04 16:37:00,72.0,54.9,29.63,North,0,0.0,0.0,55,0.00,,,-99.99,Weather View 32 v70,2013-05-04 23:37:00,
2013-05-04 16:52:00,74.0,56.2,29.63,North,0,0.0,0.0,54,0.00,,,-99.99,Weather View 32 v70,2013-05-04 23:52:00,
2013-05-04 17:07:00,73.0,56.8,29.64,North,0,0.0,0.0,57,0.00,,,-99.99,Weather View 32 v70,2013-05-05 00:07:00,
2013-05-04 17:22:00,73.0,56.3,29.64,North,0,0.0,0.0,56,0.00,,,-99.99,Weather View 32 v70,2013-05-05 00:22:00,
2013-05-04 17:30:00,73.0,55.8,29.65,North,0,0.0,0.0,55,0.00,,,-99.99,Weather View 32 v70,2013-05-05 00:30:00,
2013-05-04 17:37:00,73.0,55.8,29.65,North,0,0.0,0.0,55,0.00,,,-99.99,Weather View 32 v70,2013-05-05 00:37:00,
2013-05-04 17:52:00,71.0,55.9,29.66,North,0,0.0,0.0,59,0.00,,,-99.99,Weather View 32 v70,2013-05-05 00:52:00,
2013-05-04 18:07:00,71.0,55.4,29.66,North,0,0.0,0.0,58,0.00,,,-99.99,Weather View 32 v70,2013-05-05 01:07:00,
2013-05-04 18:22:00,73.0,55.3,29.66,North,0,0.0,0.0,54,0.00,,,-99.99,Weather View 32 v70,2013-05-05 01:22:00,
2013-05-04 18:30:00,76.0,53.1,29.67,North,0,0.0,0.0,45,0.00,,,-99.99,Weather View 32 v70,2013-05-05 01:30:00,
2013-05-04 18:37:00,76.0,53.1,29.67,North,0,0.0,0.0,45,0.00,,,-99.99,Weather View 32 v70,2013-05-05 01:37:00,
2013-05-04 18:52:00,76.0,51.8,29.67,North,0,0.0,0.0,43,0.00,,,-99.99,Weather View 32 v70,2013-05-05 01:52:00,
2013-05-04 19:07:00,74.0,48.7,29.68,North,0,0.0,0.0,41,0.00,,,-99.99,Weather View 32 v70,2013-05-05 02:07:00,
2013-05-04 19:22:00,72.0,46.9,29.69,North,0,0.0,0.0,41,0.00,,,-99.99,Weather View 32 v70,2013-05-05 02:22:00,
2013-05-04 19:30:00,70.0,45.8,29.70,NNW,338,0.0,0.0,42,0.00,,,-99.99,Weather View 32 v70,2013-05-05 02:30:00,
2013-05-04 19:37:00,70.0,45.8,29.70,NNW,338,0.0,0.0,42,0.00,,,-99.99,Weather View 32 v70,2013-05-05 02:37:00,
2013-05-04 19:52:00,68.0,46.4,29.70,North,0,0.0,0.0,46,0.00,,,-99.99,Weather View 32 v70,2013-05-05 02:52:00,
2013-05-04 20:07:00,67.0,46.1,29.70,North,0,0.0,0.0,47,0.00,,,-99.99,Weather View 32 v70,2013-05-05 03:07:00,
2013-05-04 20:22:00,66.0,47.3,29.71,NNW,338,0.0,0.0,51,0.00,,,-99.99,Weather View 32 v70,2013-05-05 03:22:00,
2013-05-04 20:30:00,64.0,47.0,29.71,North,0,0.0,0.0,54,0.00,,,-99.99,Weather View 32 v70,2013-05-05 03:30:00,
2013-05-04 20:37:00,64.0,47.0,29.71,North,0,0.0,0.0,54,0.00,,,-99.99,Weather View 32 v70,2013-05-05 03:37:00,
2013-05-04 20:52:00,64.0,48.4,29.71,North,0,0.0,0.0,57,0.00,,,-99.99,Weather View 32 v70,2013-05-05 03:52:00,
2013-05-04 21:07:00,63.0,48.9,29.71,NNW,338,0.0,0.0,60,0.00,,,-99.99,Weather View 32 v70,2013-05-05 04:07:00,
2013-05-04 21:22:00,62.0,49.2,29.71,NNW,338,0.0,0.0,63,0.00,,,-99.99,Weather View 32 v70,2013-05-05 04:22:00,
2013-05-04 21:30:00,61.0,48.7,29.72,NNW,338,0.0,0.0,64,0.00,,,-99.99,Weather View 32 v70,2013-05-05 04:30:00,
2013-05-04 21:37:00,61.0,48.7,29.72,NNW,338,0.0,0.0,64,0.00,,,-99.99,Weather View 32 v70,2013-05-05 04:37:00,
2013-05-04 21:52:00,59.0,49.6,29.72,North,0,0.0,0.0,71,0.00,,,-99.99,Weather View 32 v70,2013-05-05 04:52:00,
2013-05-04 22:07:00,58.0,50.5,29.73,North,0,0.0,0.0,76,0.00,,,-99.99,Weather View 32 v70,2013-05-05 05:07:00,
2013-05-04 22:22:00,58.0,50.5,29.72,North,0,0.0,0.0,76,0.00,,,-99.99,Weather View 32 v70,2013-05-05 05:22:00,
2013-05-04 22:30:00,58.0,50.5,29.72,North,0,0.0,0.0,76,0.00,,,-99.99,Weather View 32 v70,2013-05-05 05:30:00,
2013-05-04 22:37:00,58.0,50.5,29.72,North,0,0.0,0.0,76,0.00,,,-99.99,Weather View 32 v70,2013-05-05 05:37:00,
2013-05-04 22:52:00,57.0,50.5,29.71,NNW,338,0.0,0.0,79,0.00,,,-99.99,Weather View 32 v70,2013-05-05 05:52:00,
2013-05-04 23:07:00,57.0,51.5,29.71,North,0,0.0,0.0,82,0.00,,,-99.99,Weather View 32 v70,2013-05-05 06:07:00,
2013-05-04 23:22:00,57.0,52.2,29.70,North,0,0.0,0.0,84,0.00,,,-99.99,Weather View 32 v70,2013-05-05 06:22:00,
2013-05-04 23:37:00,57.0,52.2,29.70,North,0,0.0,0.0,84,0.00,,,-99.99,Weather View 32 v70,2013-05-05 06:37:00,
2013-05-04 23:52:00,56.0,51.2,29.70,North,0,0.0,0.0,84,0.00,,,-99.99,Weather View 32 v70,2013-05-05 06:52:00,